Terminal Aerodrome Forecast
Issued by NWS

Home | Current Version | Previous Version | Graphics & Text | Print | Product List | Glossary On
Versions: 1 2 3 4 5 6 7 8 9 10 11 12 13 14 15 16 17 18 19 20 21 22 23 24 25 26 27 28 29 30 31 32 33 34 35 36 37 38
000
FTUS43 KGRB 221720
TAFATW
TAF
KATW 221720Z 2218/2318 24009G16KT P6SM VCSH SCT028 BKN060
      TEMPO 2218/2222 2SM TSRA BKN028CB
     FM222200 29008KT 5SM SHRA BKN035
      TEMPO 2222/2224 2SM TSRA BKN016CB
     FM230000 01009G14KT 3SM TSRA BKN024CB
     FM230300 34006KT 5SM -SHRA OVC030
     FM230800 29006KT P6SM BKN100
     FM231600 26012G21KT P6SM SCT040=

USA.gov is the U.S. government's official web portal to all federal, state and local government web resources and services.